createdAt,value
2018-05-10T00:01:10.153Z,57.40
2018-05-10T00:03:37.729Z,57.60
2018-05-10T00:06:06.148Z,54.80
2018-05-10T00:08:33.722Z,54.70
2018-05-10T00:11:01.264Z,57.50
2018-05-10T00:13:28.837Z,56.00
2018-05-10T00:15:56.382Z,57.50
2018-05-10T00:18:23.959Z,56.10
2018-05-10T00:20:51.513Z,56.50
2018-05-10T00:23:19.087Z,56.30
2018-05-10T00:25:46.632Z,57.70
2018-05-10T00:28:14.204Z,58.70
2018-05-10T00:30:41.753Z,56.60
2018-05-10T00:33:09.329Z,54.70
2018-05-10T00:35:36.873Z,58.70
2018-05-10T00:38:05.215Z,55.90
2018-05-10T00:40:32.773Z,56.10
2018-05-10T00:43:00.348Z,56.60
2018-05-10T00:45:27.902Z,56.70
2018-05-10T00:47:55.473Z,58.20
2018-05-10T00:50:23.053Z,56.40
2018-05-10T00:52:50.614Z,58.50
2018-05-10T00:55:18.184Z,58.40
2018-05-10T00:57:45.728Z,57.10
2018-05-10T01:00:13.298Z,56.30
2018-05-10T01:02:40.852Z,55.70
2018-05-10T01:05:08.428Z,55.00
2018-05-10T01:07:36.750Z,57.50
2018-05-10T01:10:04.321Z,57.20
2018-05-10T01:12:31.872Z,57.40
2018-05-10T01:14:59.448Z,58.10
2018-05-10T01:17:27.001Z,59.80
2018-05-10T01:19:54.577Z,57.50
2018-05-10T01:22:22.130Z,60.50
2018-05-10T01:24:49.711Z,56.10
2018-05-10T01:27:17.252Z,58.10
2018-05-10T01:29:45.585Z,58.40
2018-05-10T01:32:13.133Z,58.20
2018-05-10T01:34:40.709Z,57.40
2018-05-10T01:37:08.257Z,58.60
2018-05-10T01:39:35.825Z,59.80
2018-05-10T01:42:03.369Z,58.40
2018-05-10T01:44:31.751Z,57.50
2018-05-10T01:46:59.301Z,57.60
2018-05-10T01:49:26.994Z,57.30
2018-05-10T01:51:54.542Z,58.00
2018-05-10T01:54:22.123Z,59.30
2018-05-10T01:56:49.666Z,58.50
2018-05-10T01:59:17.237Z,58.60
2018-05-10T02:01:44.862Z,57.30
2018-05-10T02:04:12.402Z,58.60
2018-05-10T02:06:40.712Z,58.90
2018-05-10T02:09:08.266Z,58.20
2018-05-10T02:11:35.836Z,55.90
2018-05-10T02:14:04.197Z,56.90
2018-05-10T02:16:31.776Z,57.30
2018-05-10T02:18:59.332Z,57.70
2018-05-10T02:21:26.906Z,58.10
2018-05-10T02:23:54.450Z,55.50
2018-05-10T02:26:22.156Z,56.20
2018-05-10T02:28:49.707Z,57.40
2018-05-10T02:31:17.290Z,55.80
2018-05-10T02:33:44.846Z,59.20
2018-05-10T02:36:13.193Z,58.80
2018-05-10T02:38:40.751Z,58.80
2018-05-10T02:41:08.338Z,59.50
2018-05-10T02:43:35.896Z,60.10
2018-05-10T02:46:03.789Z,60.20
2018-05-10T02:48:31.345Z,58.60
2018-05-10T02:50:58.913Z,59.80
2018-05-10T02:53:26.460Z,59.80
2018-05-10T02:55:54.038Z,62.00
2018-05-10T02:58:21.595Z,61.30
2018-05-10T03:00:49.169Z,60.30
2018-05-10T03:03:16.725Z,59.80
2018-05-10T03:05:44.297Z,60.90
2018-05-10T03:08:11.851Z,61.10
2018-05-10T03:10:39.430Z,61.40
2018-05-10T03:13:07.754Z,60.40
2018-05-10T03:15:35.325Z,61.10
2018-05-10T03:18:03.176Z,59.30
2018-05-10T03:20:31.521Z,62.50
2018-05-10T03:22:59.069Z,62.50
2018-05-10T03:25:28.134Z,58.90
2018-05-10T03:27:55.706Z,59.00
2018-05-10T03:30:23.265Z,59.10
2018-05-10T03:32:51.611Z,60.30
2018-05-10T03:35:19.168Z,60.10
2018-05-10T03:37:46.742Z,60.90
2018-05-10T03:40:14.290Z,60.00
2018-05-10T03:42:41.866Z,63.50
2018-05-10T03:45:09.413Z,61.90
2018-05-10T03:47:36.986Z,63.30
2018-05-10T03:50:04.535Z,62.20
2018-05-10T03:52:32.113Z,60.00
2018-05-10T03:54:59.674Z,62.50
2018-05-10T03:57:27.258Z,60.40
2018-05-10T03:59:54.804Z,61.40
2018-05-10T04:02:34.229Z,60.80
2018-05-10T04:05:13.491Z,60.90
2018-05-10T04:07:52.923Z,63.60
2018-05-10T04:10:32.165Z,62.20
2018-05-10T04:12:59.742Z,63.10
2018-05-10T04:15:27.332Z,62.90
2018-05-10T04:17:54.888Z,64.70
2018-05-10T04:20:22.442Z,61.40
2018-05-10T04:22:50.026Z,63.50
2018-05-10T04:25:17.587Z,62.80
2018-05-10T04:27:45.224Z,62.70
2018-05-10T04:30:12.777Z,60.50
2018-05-10T04:32:40.554Z,62.50
2018-05-10T04:35:08.104Z,60.70
2018-05-10T04:37:35.676Z,61.50
2018-05-10T04:40:03.234Z,61.60
2018-05-10T04:42:30.817Z,63.10
2018-05-10T04:44:58.369Z,61.80
2018-05-10T04:47:25.921Z,63.70
2018-05-10T04:49:53.498Z,62.70
2018-05-10T04:52:21.044Z,63.60
2018-05-10T04:54:48.714Z,61.50
2018-05-10T04:57:16.205Z,60.40
2018-05-10T04:59:43.802Z,62.50
2018-05-10T05:02:11.349Z,61.00
2018-05-10T05:04:38.922Z,64.70
2018-05-10T05:07:06.478Z,60.50
2018-05-10T05:09:34.054Z,60.10
2018-05-10T05:12:01.661Z,62.60
2018-05-10T05:14:30.003Z,61.40
2018-05-10T05:16:57.549Z,61.20
2018-05-10T05:19:25.121Z,63.00
2018-05-10T05:21:52.752Z,65.10
2018-05-10T05:24:20.328Z,63.70
2018-05-10T05:26:47.962Z,62.40
2018-05-10T05:29:15.470Z,61.10
2018-05-10T05:31:43.034Z,62.60
2018-05-10T05:34:10.645Z,62.60
2018-05-10T05:36:38.198Z,65.30
2018-05-10T05:39:05.778Z,62.60
2018-05-10T05:41:33.326Z,65.90
2018-05-10T05:44:00.908Z,65.50
2018-05-10T05:46:29.221Z,64.30
2018-05-10T05:48:56.792Z,63.70
2018-05-10T05:51:24.333Z,68.50
2018-05-10T05:53:52.677Z,65.40
2018-05-10T05:56:20.224Z,65.40
2018-05-10T05:58:47.814Z,68.30
2018-05-10T06:01:15.381Z,67.90
2018-05-10T06:03:43.064Z,65.90
2018-05-10T06:06:10.638Z,68.10
2018-05-10T06:08:38.210Z,67.90
2018-05-10T06:11:05.799Z,65.40
2018-05-10T06:13:33.367Z,64.20
2018-05-10T06:16:01.039Z,66.10
2018-05-10T06:18:28.533Z,65.90
2018-05-10T06:20:56.122Z,66.20
2018-05-10T06:23:23.678Z,64.20
2018-05-10T06:25:51.247Z,65.00
2018-05-10T06:28:18.798Z,68.60
2018-05-10T06:30:47.141Z,65.60
2018-05-10T06:33:14.684Z,65.60
2018-05-10T06:35:42.262Z,65.80
2018-05-10T06:38:09.818Z,64.50
2018-05-10T06:40:37.498Z,66.80
2018-05-10T06:43:05.051Z,68.30
2018-05-10T06:45:32.630Z,70.20
2018-05-10T06:48:00.183Z,74.70
2018-05-10T06:50:27.756Z,74.10
2018-05-10T06:52:56.072Z,73.80
2018-05-10T06:55:23.654Z,73.90
2018-05-10T06:57:51.218Z,71.10
2018-05-10T07:00:18.792Z,70.80
2018-05-10T07:02:46.337Z,71.40
2018-05-10T07:05:13.921Z,72.90
2018-05-10T07:07:41.478Z,75.40
2018-05-10T07:10:09.074Z,74.40
2018-05-10T07:12:36.632Z,77.30
2018-05-10T07:15:04.180Z,74.60
2018-05-10T07:17:31.758Z,70.50
2018-05-10T07:20:00.082Z,74.40
2018-05-10T07:22:27.667Z,74.40
2018-05-10T07:24:55.237Z,73.90
2018-05-10T07:27:22.822Z,73.20
2018-05-10T07:29:51.145Z,72.90
2018-05-10T07:32:18.758Z,72.70
2018-05-10T07:34:47.081Z,75.50
2018-05-10T07:37:14.657Z,75.40
2018-05-10T07:39:42.210Z,72.10
2018-05-10T07:42:09.828Z,71.20
2018-05-10T07:44:38.137Z,73.90
2018-05-10T07:47:05.717Z,74.00
2018-05-10T07:49:33.274Z,72.80
2018-05-10T07:52:00.854Z,71.30
2018-05-10T07:54:29.170Z,71.50
2018-05-10T07:56:56.788Z,71.50
2018-05-10T07:59:24.350Z,72.40
2018-05-10T08:01:52.693Z,73.00
2018-05-10T08:04:20.255Z,72.90
2018-05-10T08:06:47.993Z,72.30
2018-05-10T08:09:15.551Z,71.20
2018-05-10T08:11:43.126Z,72.20
2018-05-10T08:14:11.180Z,73.30
2018-05-10T08:16:40.483Z,72.20
2018-05-10T08:19:08.875Z,72.20
2018-05-10T08:21:38.159Z,74.30
2018-05-10T08:24:06.332Z,71.70
2018-05-10T08:26:34.041Z,72.60
2018-05-10T08:29:02.419Z,73.10
2018-05-10T08:31:30.546Z,72.20
2018-05-10T08:33:58.734Z,76.00
2018-05-10T08:36:27.061Z,73.60
2018-05-10T08:38:56.182Z,74.80
2018-05-10T08:41:25.995Z,74.20
2018-05-10T08:43:54.251Z,74.20
2018-05-10T08:46:23.259Z,73.00
2018-05-10T08:48:51.876Z,70.30
2018-05-10T08:51:20.076Z,71.50
2018-05-10T08:53:47.702Z,72.90
2018-05-10T08:56:16.010Z,73.20
2018-05-10T08:58:44.600Z,70.80
2018-05-10T09:01:12.803Z,73.40
2018-05-10T09:03:41.449Z,70.10
2018-05-10T09:06:09.047Z,73.70
2018-05-10T09:08:36.617Z,72.80
2018-05-10T09:11:04.160Z,73.60
2018-05-10T09:13:31.972Z,74.00
2018-05-10T09:15:59.520Z,72.10
2018-05-10T09:18:27.090Z,73.80
2018-05-10T09:20:54.651Z,75.80
2018-05-10T09:23:22.233Z,70.70
2018-05-10T09:25:49.790Z,75.90
2018-05-10T09:28:17.357Z,73.90
2018-05-10T09:30:45.664Z,72.00
2018-05-10T09:33:13.238Z,71.80
2018-05-10T09:35:40.799Z,73.20
2018-05-10T09:38:08.358Z,70.40
2018-05-10T09:40:35.935Z,68.50
2018-05-10T09:43:03.491Z,70.30
2018-05-10T09:45:31.056Z,69.10
2018-05-10T09:47:58.601Z,70.80
2018-05-10T09:50:26.173Z,68.20
2018-05-10T09:52:53.717Z,69.40
2018-05-10T09:55:21.286Z,68.00
2018-05-10T09:57:48.833Z,68.80
2018-05-10T10:00:22.109Z,68.00
2018-05-10T10:02:49.654Z,68.20
2018-05-10T10:05:17.233Z,68.80
2018-05-10T10:07:44.795Z,71.70
2018-05-10T10:10:12.367Z,67.40
2018-05-10T10:12:39.916Z,71.00
2018-05-10T10:15:07.489Z,68.20
2018-05-10T10:17:35.821Z,68.50
2018-05-10T10:20:03.508Z,68.60
2018-05-10T10:22:31.059Z,69.30
2018-05-10T10:24:58.633Z,70.90
2018-05-10T10:27:26.204Z,69.90
2018-05-10T10:29:53.771Z,70.90
2018-05-10T10:32:21.384Z,71.70
2018-05-10T10:34:49.710Z,71.30
2018-05-10T10:37:17.263Z,71.10
2018-05-10T10:39:44.838Z,72.50
2018-05-10T10:42:12.458Z,71.90
2018-05-10T10:44:40.905Z,68.00
2018-05-10T10:47:08.448Z,68.20
2018-05-10T10:49:36.242Z,69.30
2018-05-10T10:52:03.857Z,70.60
2018-05-10T10:54:31.507Z,72.40
2018-05-10T10:56:59.873Z,71.50
2018-05-10T10:59:27.421Z,71.50
2018-05-10T11:01:55.060Z,73.20
2018-05-10T11:04:22.798Z,71.50
2018-05-10T11:06:50.377Z,71.80
2018-05-10T11:09:18.095Z,71.90
2018-05-10T11:11:46.364Z,70.40
2018-05-10T11:14:14.472Z,71.20
2018-05-10T11:16:42.106Z,70.70
2018-05-10T11:19:09.662Z,70.50
2018-05-10T11:21:37.239Z,69.70
2018-05-10T11:24:05.552Z,70.40
2018-05-10T11:26:33.130Z,70.20
2018-05-10T11:29:00.815Z,69.50
2018-05-10T11:31:28.833Z,69.80
2018-05-10T11:33:56.396Z,70.10
2018-05-10T11:36:23.975Z,73.80
2018-05-10T11:38:51.520Z,68.60
2018-05-10T11:41:19.102Z,72.30
2018-05-10T11:43:46.654Z,70.20
2018-05-10T11:46:14.234Z,71.80
2018-05-10T11:48:41.841Z,71.50
2018-05-10T11:51:09.377Z,71.20
2018-05-10T11:53:36.969Z,71.30
2018-05-10T11:56:04.552Z,70.20
2018-05-10T11:58:32.105Z,71.00
2018-05-10T12:00:59.693Z,69.70
2018-05-10T12:03:27.276Z,69.40
2018-05-10T12:05:54.821Z,68.90
2018-05-10T12:08:22.394Z,68.30
2018-05-10T12:10:50.705Z,69.40
2018-05-10T12:13:18.309Z,69.40
2018-05-10T12:15:45.858Z,70.50
2018-05-10T12:18:13.434Z,69.20
2018-05-10T12:20:40.976Z,68.20
2018-05-10T12:23:08.553Z,69.10
2018-05-10T12:25:36.196Z,69.30
2018-05-10T12:28:04.464Z,68.80
2018-05-10T12:30:32.101Z,68.70
2018-05-10T12:33:00.369Z,69.70
2018-05-10T12:35:28.055Z,69.90
2018-05-10T12:37:55.634Z,70.00
2018-05-10T12:40:23.176Z,68.80
2018-05-10T12:42:50.744Z,69.20
2018-05-10T12:45:18.289Z,68.50
2018-05-10T12:47:45.865Z,68.80
2018-05-10T12:50:13.862Z,70.50
2018-05-10T12:52:41.437Z,69.60
2018-05-10T12:55:09.754Z,69.20
2018-05-10T12:57:37.334Z,69.20
2018-05-10T13:00:05.809Z,69.90
2018-05-10T13:02:33.652Z,67.90
2018-05-10T13:05:01.206Z,68.70
2018-05-10T13:07:28.776Z,68.80
2018-05-10T13:09:56.330Z,68.20
2018-05-10T13:12:23.913Z,68.40
2018-05-10T13:14:51.467Z,68.00
2018-05-10T13:17:19.018Z,68.40
2018-05-10T13:19:46.593Z,69.90
2018-05-10T13:22:14.140Z,67.40
2018-05-10T13:24:41.709Z,68.10
2018-05-10T13:27:09.257Z,69.00
2018-05-10T13:29:36.829Z,68.20
2018-05-10T13:32:04.386Z,68.40
2018-05-10T13:34:31.952Z,69.90
2018-05-10T13:36:59.660Z,70.00
2018-05-10T13:39:27.223Z,68.10
2018-05-10T13:41:55.921Z,69.00
2018-05-10T13:44:23.493Z,69.50
2018-05-10T13:46:51.037Z,67.80
2018-05-10T13:49:18.800Z,67.90
2018-05-10T13:51:46.353Z,68.10
2018-05-10T13:54:13.930Z,70.90
2018-05-10T13:56:41.478Z,69.10
2018-05-10T13:59:09.082Z,69.70
2018-05-10T14:01:36.625Z,70.00
2018-05-10T14:04:04.237Z,69.30
2018-05-10T14:06:32.427Z,69.00
2018-05-10T14:09:00.707Z,68.60
2018-05-10T14:11:28.263Z,69.20
2018-05-10T14:13:56.537Z,68.80
2018-05-10T14:16:24.081Z,69.50
2018-05-10T14:18:51.649Z,71.00
2018-05-10T14:21:19.197Z,69.60
2018-05-10T14:23:46.741Z,68.80
2018-05-10T14:26:14.358Z,69.80
2018-05-10T14:28:41.924Z,70.90
2018-05-10T14:31:09.504Z,70.30
2018-05-10T14:33:37.835Z,68.40
2018-05-10T14:36:05.410Z,68.20
2018-05-10T14:38:32.964Z,69.40
2018-05-10T14:41:01.374Z,70.80
2018-05-10T14:43:29.146Z,70.90
2018-05-10T14:45:56.722Z,70.50
2018-05-10T14:48:24.278Z,69.80
2018-05-10T14:50:51.857Z,68.60
2018-05-10T14:53:19.420Z,69.00
2018-05-10T14:55:46.997Z,69.80
2018-05-10T14:58:14.553Z,69.00
2018-05-10T15:00:42.129Z,71.10
2018-05-10T15:03:09.686Z,70.50
2018-05-10T15:05:37.262Z,69.90
2018-05-10T15:08:04.825Z,68.80
2018-05-10T15:10:32.401Z,69.80
2018-05-10T15:12:59.953Z,70.40
2018-05-10T15:15:28.301Z,69.80
2018-05-10T15:17:55.849Z,69.80
2018-05-10T15:20:23.593Z,69.60
2018-05-10T15:22:51.141Z,71.80
2018-05-10T15:25:18.727Z,70.00
2018-05-10T15:27:46.282Z,69.00
2018-05-10T15:30:13.842Z,70.10
2018-05-10T15:32:41.488Z,68.90
2018-05-10T15:35:09.252Z,68.40
2018-05-10T15:37:36.834Z,69.60
2018-05-10T15:40:04.392Z,70.20
2018-05-10T15:42:31.961Z,69.40
2018-05-10T15:44:59.513Z,70.50
2018-05-10T15:47:27.081Z,70.60
2018-05-10T15:49:54.633Z,70.70
2018-05-10T15:52:22.212Z,71.10
2018-05-10T15:54:49.749Z,72.00
2018-05-10T15:57:17.334Z,70.20
2018-05-10T15:59:44.889Z,71.20
2018-05-10T16:02:12.456Z,70.70
2018-05-10T16:04:40.778Z,71.10
2018-05-10T16:07:08.352Z,71.00
2018-05-10T16:09:35.902Z,70.70
2018-05-10T16:12:03.473Z,71.80
2018-05-10T16:14:31.025Z,72.00
2018-05-10T16:16:58.601Z,69.80
2018-05-10T16:19:26.162Z,69.80
2018-05-10T16:21:53.744Z,69.40
2018-05-10T16:24:21.304Z,70.10
2018-05-10T16:26:48.882Z,71.20
2018-05-10T16:29:16.437Z,72.20
2018-05-10T16:31:44.019Z,72.80
2018-05-10T16:34:12.289Z,73.20
2018-05-10T16:36:39.857Z,72.50
2018-05-10T16:39:08.585Z,71.00
2018-05-10T16:41:36.935Z,72.70
2018-05-10T16:44:04.742Z,72.70
2018-05-10T16:46:32.324Z,71.70
2018-05-10T16:48:59.899Z,70.60
2018-05-10T16:51:27.450Z,70.50
2018-05-10T16:53:55.230Z,70.60
2018-05-10T16:56:22.855Z,72.10
2018-05-10T16:58:52.448Z,72.60
2018-05-10T17:01:21.737Z,72.20
2018-05-10T17:03:49.370Z,73.50
2018-05-10T17:06:16.921Z,72.90
2018-05-10T17:08:46.155Z,71.20
2018-05-10T17:11:13.773Z,70.80
2018-05-10T17:13:41.361Z,71.80
2018-05-10T17:16:08.921Z,71.40
2018-05-10T17:18:36.586Z,74.30
2018-05-10T17:21:04.075Z,73.40
2018-05-10T17:23:31.661Z,73.10
2018-05-10T17:25:59.224Z,72.00
2018-05-10T17:28:26.988Z,72.70
2018-05-10T17:30:54.595Z,73.50
2018-05-10T17:33:22.967Z,72.20
2018-05-10T17:35:50.517Z,73.90
2018-05-10T17:38:18.084Z,73.90
2018-05-10T17:40:45.637Z,72.90
2018-05-10T17:43:14.081Z,74.30
2018-05-10T17:45:41.634Z,72.60
2018-05-10T17:48:09.859Z,73.90
2018-05-10T17:50:38.256Z,73.90
2018-05-10T17:53:05.878Z,72.90
2018-05-10T17:55:33.492Z,73.20
2018-05-10T17:58:01.042Z,74.10
2018-05-10T18:00:29.449Z,73.60
2018-05-10T18:02:57.013Z,72.80
2018-05-10T18:05:24.609Z,74.40
2018-05-10T18:07:52.148Z,74.20
2018-05-10T18:10:19.737Z,73.60
2018-05-10T18:12:47.289Z,73.50
2018-05-10T18:15:15.734Z,72.30
2018-05-10T18:17:43.283Z,71.30
2018-05-10T18:20:10.869Z,72.10
2018-05-10T18:22:38.431Z,71.40
2018-05-10T18:25:07.928Z,70.60
2018-05-10T18:27:35.489Z,72.80
2018-05-10T18:30:03.081Z,73.10
2018-05-10T18:32:31.336Z,72.80
2018-05-10T18:34:59.900Z,72.30
2018-05-10T18:37:27.450Z,73.40
2018-05-10T18:39:55.029Z,74.20
2018-05-10T18:42:22.581Z,74.00
2018-05-10T18:44:50.158Z,72.00
2018-05-10T18:47:17.823Z,71.50
2018-05-10T18:49:45.462Z,73.60
2018-05-10T18:52:13.019Z,73.20
2018-05-10T18:54:40.652Z,73.10
2018-05-10T18:57:08.936Z,74.50
2018-05-10T18:59:36.518Z,74.60
2018-05-10T19:02:04.085Z,75.10
2018-05-10T19:04:31.632Z,74.40
2018-05-10T19:06:59.245Z,72.20
2018-05-10T19:09:27.114Z,72.10
2018-05-10T19:11:54.688Z,72.50
2018-05-10T19:14:22.232Z,72.30
2018-05-10T19:16:49.964Z,72.20
2018-05-10T19:19:17.522Z,72.30
2018-05-10T19:21:45.094Z,71.50
2018-05-10T19:24:12.646Z,72.80
2018-05-10T19:26:40.230Z,73.70
2018-05-10T19:29:07.773Z,73.50
2018-05-10T19:31:36.114Z,71.70
2018-05-10T19:34:03.676Z,71.60
2018-05-10T19:36:32.751Z,74.40
2018-05-10T19:39:00.312Z,74.30
2018-05-10T19:41:27.886Z,73.20
2018-05-10T19:43:55.437Z,74.10
2018-05-10T19:46:23.005Z,72.80
2018-05-10T19:48:50.560Z,70.90
2018-05-10T19:51:18.977Z,71.50
2018-05-10T19:53:46.473Z,70.90
2018-05-10T19:56:14.049Z,72.90
2018-05-10T19:58:41.610Z,72.10
2018-05-10T20:01:09.190Z,72.00
2018-05-10T20:03:36.772Z,74.40
2018-05-10T20:06:05.115Z,73.50
2018-05-10T20:08:32.736Z,73.40
2018-05-10T20:11:00.290Z,74.80
2018-05-10T20:13:27.833Z,74.70
2018-05-10T20:15:55.379Z,71.80
2018-05-10T20:18:22.958Z,72.10
2018-05-10T20:20:50.620Z,72.50
2018-05-10T20:23:18.213Z,72.30
2018-05-10T20:25:45.765Z,74.60
2018-05-10T20:28:14.142Z,73.90
2018-05-10T20:30:41.683Z,73.40
2018-05-10T20:33:09.262Z,71.10
2018-05-10T20:35:37.582Z,75.90
2018-05-10T20:38:05.943Z,73.80
2018-05-10T20:40:33.494Z,73.00
2018-05-10T20:43:01.129Z,74.40
2018-05-10T20:45:28.645Z,75.50
2018-05-10T20:47:56.998Z,75.30
2018-05-10T20:50:24.582Z,75.20
2018-05-10T20:52:52.145Z,75.10
2018-05-10T20:55:19.702Z,74.90
2018-05-10T20:57:48.043Z,75.70
2018-05-10T21:00:15.594Z,75.60
2018-05-10T21:02:44.826Z,74.80
2018-05-10T21:05:12.368Z,73.60
2018-05-10T21:07:39.945Z,74.80
2018-05-10T21:10:08.268Z,72.40
2018-05-10T21:12:41.658Z,72.40
2018-05-10T21:15:09.204Z,74.80
2018-05-10T21:17:37.546Z,74.80
2018-05-10T21:20:05.865Z,75.50
2018-05-10T21:22:33.453Z,74.90
2018-05-10T21:25:01.657Z,72.30
2018-05-10T21:27:30.017Z,73.50
2018-05-10T21:29:57.570Z,73.40
2018-05-10T21:32:25.145Z,72.80
2018-05-10T21:34:52.701Z,76.10
2018-05-10T21:37:20.272Z,72.00
2018-05-10T21:39:48.597Z,72.60
2018-05-10T21:42:16.147Z,72.50
2018-05-10T21:44:43.744Z,72.80
2018-05-10T21:47:11.300Z,72.90
2018-05-10T21:49:50.646Z,75.10
2018-05-10T21:52:18.211Z,75.90
2018-05-10T21:54:45.788Z,75.50
2018-05-10T21:57:14.114Z,73.20
2018-05-10T21:59:41.689Z,73.10
2018-05-10T22:02:09.237Z,72.20
2018-05-10T22:04:36.818Z,73.40
2018-05-10T22:07:04.370Z,73.60
2018-05-10T22:09:31.944Z,73.60
2018-05-10T22:11:59.490Z,72.10
2018-05-10T22:14:27.075Z,73.90
2018-05-10T22:16:55.390Z,73.10
2018-05-10T22:19:22.970Z,73.10
2018-05-10T22:21:50.526Z,71.20
2018-05-10T22:24:18.106Z,71.20
2018-05-10T22:26:45.666Z,71.10
2018-05-10T22:29:13.250Z,71.10
2018-05-10T22:31:41.559Z,73.00
2018-05-10T22:34:09.140Z,72.90
2018-05-10T22:36:36.688Z,71.30
2018-05-10T22:39:05.821Z,71.90
2018-05-10T22:41:33.362Z,71.80
2018-05-10T22:44:00.938Z,74.00
2018-05-10T22:46:28.489Z,72.10
2018-05-10T22:48:56.060Z,72.50
2018-05-10T22:51:23.621Z,72.10
2018-05-10T22:53:51.173Z,72.70
2018-05-10T22:56:18.753Z,75.40
2018-05-10T22:58:47.064Z,75.10
2018-05-10T23:01:14.637Z,75.00
2018-05-10T23:03:42.181Z,72.50
2018-05-10T23:06:09.757Z,72.90
2018-05-10T23:08:37.305Z,73.40
2018-05-10T23:11:04.880Z,71.60
2018-05-10T23:13:32.433Z,73.40
2018-05-10T23:16:00.018Z,74.70
2018-05-10T23:18:27.560Z,75.20
2018-05-10T23:20:55.137Z,73.40
2018-05-10T23:23:22.690Z,72.40
2018-05-10T23:25:50.263Z,73.20
2018-05-10T23:28:18.579Z,73.70
2018-05-10T23:30:46.157Z,73.70
2018-05-10T23:33:14.475Z,72.30
2018-05-10T23:35:42.052Z,72.30
2018-05-10T23:38:09.604Z,74.50
2018-05-10T23:40:38.017Z,74.00
2018-05-10T23:43:05.569Z,73.90
2018-05-10T23:45:33.223Z,74.00
2018-05-10T23:48:00.720Z,74.20
2018-05-10T23:50:28.302Z,72.40
2018-05-10T23:52:55.858Z,72.20
2018-05-10T23:55:23.437Z,72.20
2018-05-10T23:57:50.986Z,70.00
